Davenport, IA (52807)

2:51 AM CST on November 27, 2014 (GMT -0600)
East Central Davenport | Change Station
CLOSE
Current Station
Personal Weather Station
Location: Davenport, IA
Elevation: 692 ft
Nearby Weather Stations

Elev 692 ft 41.54 °N, 90.55 °W | Updated 2 seconds ago

Overcast
Overcast
23.5 °F
Feels Like 24 °F
N
2.5
Wind Variable Wind from NW
Gusts 4.0 mph

Today
High -- | Low -- °F
--% Chance of Precip.
Yesterday
High -- | Low -- °F
Precip. -- in
7:05 AM 4:34 PM
Waxing Crescent, 27% visible
Pressure 30.34 in
Visibility 6.0 miles
Clouds Mostly Cloudy 3300 ft
Windchill 24 °F
Dew Point 21 °F
Humidity 91%
Rainfall 0.00 in
Snow Depth Not available.
UV 0 out of 12
Pollen .10 out of 12
Air Quality Not available.
Flu Activity Not available.
METAR KDVN 270752Z AUTO 30006KT 6SM BR BKN033 M07/M08 A3031 RMK AO2 SNE13 SLP274 P0000 T10671083

More Conditions Fewer Conditions

Pressure 30.34 in
Visibility 6.0 miles
Clouds Mostly Cloudy 3300 ft
Windchill 24 °F
Dew Point 21 °F
Humidity 91%
Rainfall 0.00 in
Snow Depth Not available.
UV 0 out of 12
Pollen .10 out of 12
Air Quality Not available.
Flu Activity Not available.
METAR KDVN 270752Z AUTO 30006KT 6SM BR BKN033 M07/M08 A3031 RMK AO2 SNE13 SLP274 P0000 T10671083

More Conditions Fewer Conditions

10-Day Weather Forecast

Almanac

Astronomy

Nov. 27, 2014 Rise Set
Actual Time
Civil Twilight
Nautical Twilight
Astronomical Twilight
Moon
Length of Visible Light
Length of Day
Tomorrow will be .
, % of the Moon is Illuminated

Today's Extremes

State Highs State Lows

Community

WunderPhotos

Upload Photos

1,773,965 photos uploaded!

WunderBlogs® & News

Nearby

Air Quality

  Air Quality AQ Index Pollutant
Not available.

Snow Depth

Station Depth Elevation

Earthquake Activity

City Distance Mag. Time & Date
Minimum magnitude displayed is 2.5.

Coastal Water Temperatures

Place Temperature

Nearby Weather Stations